Terminal Aerodrome Forecast
Issued by NWS

Home | Current Version | Previous Version | Text Only | Print | Product List | Glossary On
Versions: 1 2 3 4 5 6 7 8 9 10 11 12 13 14 15 16 17
000
FTUS43 KIND 071700
TAFBMG
TAF
KBMG 071723Z 0718/0818 24008KT 4SM -SHRA VCTS OVC015CB
     FM072200 34010KT 4SM BR VCSH OVC008
     FM080900 01007KT 3SM BR OVC005
     FM081400 08006KT P6SM OVC012=

USA.gov is the U.S. government's official web portal to all federal, state and local government web resources and services.